sensor_id;sensor_type;location;lat;lon;timestamp;temperature;humidity
21734;DHT22;11029;47.820;10.534;2023-02-15T00:01:59;-1.80;70.40
21734;DHT22;11029;47.820;10.534;2023-02-15T00:04:26;-1.80;70.30
21734;DHT22;11029;47.820;10.534;2023-02-15T00:07:14;-1.70;70.10
21734;DHT22;11029;47.820;10.534;2023-02-15T00:09:41;-1.70;70.50
21734;DHT22;11029;47.820;10.534;2023-02-15T00:12:09;-1.90;70.50
21734;DHT22;11029;47.820;10.534;2023-02-15T00:14:35;-2.00;71.30
21734;DHT22;11029;47.820;10.534;2023-02-15T00:17:02;-2.00;71.50
21734;DHT22;11029;47.820;10.534;2023-02-15T00:19:29;-2.00;70.90
21734;DHT22;11029;47.820;10.534;2023-02-15T00:21:56;-2.00;71.00
21734;DHT22;11029;47.820;10.534;2023-02-15T00:24:23;-2.00;70.70
21734;DHT22;11029;47.820;10.534;2023-02-15T00:26:49;-2.00;70.80
21734;DHT22;11029;47.820;10.534;2023-02-15T00:29:18;-2.00;71.00
21734;DHT22;11029;47.820;10.534;2023-02-15T00:31:45;-2.10;71.70
21734;DHT22;11029;47.820;10.534;2023-02-15T00:34:18;-2.10;71.80
21734;DHT22;11029;47.820;10.534;2023-02-15T00:36:46;-2.10;71.70
21734;DHT22;11029;47.820;10.534;2023-02-15T00:39:14;-2.00;71.50
21734;DHT22;11029;47.820;10.534;2023-02-15T00:41:41;-2.10;71.30
21734;DHT22;11029;47.820;10.534;2023-02-15T00:44:08;-2.00;71.10
21734;DHT22;11029;47.820;10.534;2023-02-15T00:46:35;-2.00;70.70
21734;DHT22;11029;47.820;10.534;2023-02-15T00:49:02;-2.10;71.10
21734;DHT22;11029;47.820;10.534;2023-02-15T00:51:30;-2.10;71.10
21734;DHT22;11029;47.820;10.534;2023-02-15T00:53:57;-2.20;70.30
21734;DHT22;11029;47.820;10.534;2023-02-15T00:56:23;-2.20;70.60
21734;DHT22;11029;47.820;10.534;2023-02-15T00:58:50;-2.20;71.30
21734;DHT22;11029;47.820;10.534;2023-02-15T01:01:18;-2.30;72.40
21734;DHT22;11029;47.820;10.534;2023-02-15T01:03:45;-2.30;72.10
21734;DHT22;11029;47.820;10.534;2023-02-15T01:06:16;-2.20;71.70
21734;DHT22;11029;47.820;10.534;2023-02-15T01:08:43;-2.20;72.00
21734;DHT22;11029;47.820;10.534;2023-02-15T01:11:14;-2.30;71.20
21734;DHT22;11029;47.820;10.534;2023-02-15T01:13:41;-2.30;70.50
21734;DHT22;11029;47.820;10.534;2023-02-15T01:16:08;-2.30;70.10
21734;DHT22;11029;47.820;10.534;2023-02-15T01:18:35;-2.40;70.30
21734;DHT22;11029;47.820;10.534;2023-02-15T01:21:13;-2.40;70.20
21734;DHT22;11029;47.820;10.534;2023-02-15T01:23:42;-2.30;70.00
21734;DHT22;11029;47.820;10.534;2023-02-15T01:26:12;-2.30;69.70
21734;DHT22;11029;47.820;10.534;2023-02-15T01:28:39;-2.30;69.40
21734;DHT22;11029;47.820;10.534;2023-02-15T01:31:08;-2.40;69.80
21734;DHT22;11029;47.820;10.534;2023-02-15T01:33:37;-2.40;70.00
21734;DHT22;11029;47.820;10.534;2023-02-15T01:36:04;-2.40;70.30
21734;DHT22;11029;47.820;10.534;2023-02-15T01:38:31;-2.40;70.80
21734;DHT22;11029;47.820;10.534;2023-02-15T01:40:58;-2.40;70.90
21734;DHT22;11029;47.820;10.534;2023-02-15T01:43:51;-2.40;70.50
21734;DHT22;11029;47.820;10.534;2023-02-15T01:46:37;-2.50;70.20
21734;DHT22;11029;47.820;10.534;2023-02-15T01:49:09;-2.60;70.60
21734;DHT22;11029;47.820;10.534;2023-02-15T01:51:39;-2.60;71.30
21734;DHT22;11029;47.820;10.534;2023-02-15T01:54:20;-2.50;70.80
21734;DHT22;11029;47.820;10.534;2023-02-15T01:56:48;-2.60;71.00
21734;DHT22;11029;47.820;10.534;2023-02-15T01:59:19;-2.60;71.40
21734;DHT22;11029;47.820;10.534;2023-02-15T02:01:49;-2.60;71.50
21734;DHT22;11029;47.820;10.534;2023-02-15T02:04:23;-2.60;71.50
21734;DHT22;11029;47.820;10.534;2023-02-15T02:06:52;-2.60;71.80
21734;DHT22;11029;47.820;10.534;2023-02-15T02:09:19;-2.60;70.80
21734;DHT22;11029;47.820;10.534;2023-02-15T02:11:47;-2.60;71.00
21734;DHT22;11029;47.820;10.534;2023-02-15T02:14:15;-2.60;71.40
21734;DHT22;11029;47.820;10.534;2023-02-15T02:17:12;-2.60;71.20
21734;DHT22;11029;47.820;10.534;2023-02-15T02:31:02;-2.70;71.20
21734;DHT22;11029;47.820;10.534;2023-02-15T02:33:20;-2.80;71.20
21734;DHT22;11029;47.820;10.534;2023-02-15T02:36:20;-2.80;70.80
21734;DHT22;11029;47.820;10.534;2023-02-15T02:41:44;-2.90;71.30
21734;DHT22;11029;47.820;10.534;2023-02-15T02:44:44;-2.90;71.30
21734;DHT22;11029;47.820;10.534;2023-02-15T02:47:30;-2.90;70.90
21734;DHT22;11029;47.820;10.534;2023-02-15T02:50:00;-2.90;70.90
21734;DHT22;11029;47.820;10.534;2023-02-15T03:00:29;-3.00;71.00
21734;DHT22;11029;47.820;10.534;2023-02-15T03:03:08;-2.90;70.50
21734;DHT22;11029;47.820;10.534;2023-02-15T03:05:39;-2.90;70.50
21734;DHT22;11029;47.820;10.534;2023-02-15T03:08:08;-2.90;70.20
21734;DHT22;11029;47.820;10.534;2023-02-15T03:10:38;-2.80;70.10
21734;DHT22;11029;47.820;10.534;2023-02-15T03:13:06;-2.90;70.00
21734;DHT22;11029;47.820;10.534;2023-02-15T03:15:38;-2.90;69.70
21734;DHT22;11029;47.820;10.534;2023-02-15T03:18:31;-3.00;70.90
21734;DHT22;11029;47.820;10.534;2023-02-15T03:20:59;-3.00;70.90
21734;DHT22;11029;47.820;10.534;2023-02-15T03:23:28;-3.00;70.00
21734;DHT22;11029;47.820;10.534;2023-02-15T03:26:04;-3.20;72.50
21734;DHT22;11029;47.820;10.534;2023-02-15T03:28:38;-3.20;72.80
21734;DHT22;11029;47.820;10.534;2023-02-15T03:31:08;-3.10;73.30
21734;DHT22;11029;47.820;10.534;2023-02-15T03:33:41;-3.10;72.80
21734;DHT22;11029;47.820;10.534;2023-02-15T03:36:15;-3.10;71.80
21734;DHT22;11029;47.820;10.534;2023-02-15T03:42:04;-3.00;71.70
21734;DHT22;11029;47.820;10.534;2023-02-15T03:45:04;-2.90;71.30
21734;DHT22;11029;47.820;10.534;2023-02-15T03:47:38;-2.90;70.90
21734;DHT22;11029;47.820;10.534;2023-02-15T03:50:19;-2.90;71.30
21734;DHT22;11029;47.820;10.534;2023-02-15T03:53:09;-3.10;70.90
21734;DHT22;11029;47.820;10.534;2023-02-15T03:55:37;-3.20;70.20
21734;DHT22;11029;47.820;10.534;2023-02-15T03:58:03;-3.20;70.60
21734;DHT22;11029;47.820;10.534;2023-02-15T04:01:00;-3.10;70.50
21734;DHT22;11029;47.820;10.534;2023-02-15T04:03:54;-3.10;70.60
21734;DHT22;11029;47.820;10.534;2023-02-15T04:06:23;-3.10;70.30
21734;DHT22;11029;47.820;10.534;2023-02-15T04:08:49;-3.10;69.80
21734;DHT22;11029;47.820;10.534;2023-02-15T04:11:35;-3.20;69.90
21734;DHT22;11029;47.820;10.534;2023-02-15T04:14:01;-3.30;70.20
21734;DHT22;11029;47.820;10.534;2023-02-15T04:16:48;-3.30;70.60
21734;DHT22;11029;47.820;10.534;2023-02-15T04:19:16;-3.30;70.40
21734;DHT22;11029;47.820;10.534;2023-02-15T04:22:01;-3.30;70.60
21734;DHT22;11029;47.820;10.534;2023-02-15T04:24:49;-3.20;70.40
21734;DHT22;11029;47.820;10.534;2023-02-15T04:27:35;-3.20;70.40
21734;DHT22;11029;47.820;10.534;2023-02-15T04:30:03;-3.30;70.50
21734;DHT22;11029;47.820;10.534;2023-02-15T04:32:30;-3.30;70.60
21734;DHT22;11029;47.820;10.534;2023-02-15T04:34:57;-3.30;71.00
21734;DHT22;11029;47.820;10.534;2023-02-15T04:37:23;-3.20;70.90
21734;DHT22;11029;47.820;10.534;2023-02-15T04:39:50;-3.20;70.50
21734;DHT22;11029;47.820;10.534;2023-02-15T04:42:17;-3.40;70.90
21734;DHT22;11029;47.820;10.534;2023-02-15T04:44:44;-3.70;72.30
21734;DHT22;11029;47.820;10.534;2023-02-15T04:47:10;-3.80;74.30
21734;DHT22;11029;47.820;10.534;2023-02-15T04:49:37;-3.70;74.00
21734;DHT22;11029;47.820;10.534;2023-02-15T04:52:04;-3.70;73.60
21734;DHT22;11029;47.820;10.534;2023-02-15T04:54:30;-3.60;72.70
21734;DHT22;11029;47.820;10.534;2023-02-15T04:56:57;-3.60;72.80
21734;DHT22;11029;47.820;10.534;2023-02-15T04:59:24;-3.60;72.80
21734;DHT22;11029;47.820;10.534;2023-02-15T05:01:51;-3.60;71.80
21734;DHT22;11029;47.820;10.534;2023-02-15T05:04:17;-3.50;71.20
21734;DHT22;11029;47.820;10.534;2023-02-15T05:06:44;-3.50;71.00
21734;DHT22;11029;47.820;10.534;2023-02-15T05:09:12;-3.50;70.50
21734;DHT22;11029;47.820;10.534;2023-02-15T05:11:38;-3.40;70.70
21734;DHT22;11029;47.820;10.534;2023-02-15T05:14:05;-3.50;70.80
21734;DHT22;11029;47.820;10.534;2023-02-15T05:16:32;-3.50;70.60
21734;DHT22;11029;47.820;10.534;2023-02-15T05:18:59;-3.70;71.40
21734;DHT22;11029;47.820;10.534;2023-02-15T05:21:26;-3.60;71.70
21734;DHT22;11029;47.820;10.534;2023-02-15T05:23:53;-3.60;71.80
21734;DHT22;11029;47.820;10.534;2023-02-15T05:26:22;-3.60;71.60
21734;DHT22;11029;47.820;10.534;2023-02-15T05:29:08;-3.60;71.00
21734;DHT22;11029;47.820;10.534;2023-02-15T05:31:35;-3.60;71.30
21734;DHT22;11029;47.820;10.534;2023-02-15T05:34:02;-3.60;71.20
21734;DHT22;11029;47.820;10.534;2023-02-15T05:36:29;-3.60;71.00
21734;DHT22;11029;47.820;10.534;2023-02-15T05:38:56;-3.70;71.10
21734;DHT22;11029;47.820;10.534;2023-02-15T05:41:23;-3.70;71.00
21734;DHT22;11029;47.820;10.534;2023-02-15T05:43:50;-3.70;70.60
21734;DHT22;11029;47.820;10.534;2023-02-15T05:46:17;-3.80;71.00
21734;DHT22;11029;47.820;10.534;2023-02-15T05:48:44;-3.80;71.70
21734;DHT22;11029;47.820;10.534;2023-02-15T05:51:12;-3.70;71.20
21734;DHT22;11029;47.820;10.534;2023-02-15T05:53:40;-3.80;71.60
21734;DHT22;11029;47.820;10.534;2023-02-15T05:56:08;-3.80;71.30
21734;DHT22;11029;47.820;10.534;2023-02-15T05:58:37;-3.80;71.20
21734;DHT22;11029;47.820;10.534;2023-02-15T06:01:15;-3.80;71.30
21734;DHT22;11029;47.820;10.534;2023-02-15T06:03:44;-3.70;70.80
21734;DHT22;11029;47.820;10.534;2023-02-15T06:06:12;-3.80;70.60
21734;DHT22;11029;47.820;10.534;2023-02-15T06:08:39;-3.80;70.60
21734;DHT22;11029;47.820;10.534;2023-02-15T06:11:06;-3.80;70.30
21734;DHT22;11029;47.820;10.534;2023-02-15T06:13:34;-3.90;70.30
21734;DHT22;11029;47.820;10.534;2023-02-15T06:16:05;-3.90;70.70
21734;DHT22;11029;47.820;10.534;2023-02-15T06:18:32;-4.00;71.10
21734;DHT22;11029;47.820;10.534;2023-02-15T06:20:58;-4.00;71.50
21734;DHT22;11029;47.820;10.534;2023-02-15T06:23:25;-3.90;71.40
21734;DHT22;11029;47.820;10.534;2023-02-15T06:25:52;-3.80;70.80
21734;DHT22;11029;47.820;10.534;2023-02-15T06:28:19;-3.80;70.60
21734;DHT22;11029;47.820;10.534;2023-02-15T06:30:46;-3.80;70.40
21734;DHT22;11029;47.820;10.534;2023-02-15T06:33:13;-3.70;69.80
21734;DHT22;11029;47.820;10.534;2023-02-15T06:35:39;-3.70;70.10
21734;DHT22;11029;47.820;10.534;2023-02-15T06:38:06;-3.70;69.80
21734;DHT22;11029;47.820;10.534;2023-02-15T06:40:33;-3.70;69.60
21734;DHT22;11029;47.820;10.534;2023-02-15T06:43:00;-3.60;70.20
21734;DHT22;11029;47.820;10.534;2023-02-15T06:45:26;-3.50;69.50
21734;DHT22;11029;47.820;10.534;2023-02-15T06:47:53;-3.50;70.00
21734;DHT22;11029;47.820;10.534;2023-02-15T06:50:20;-3.50;70.20
21734;DHT22;11029;47.820;10.534;2023-02-15T06:52:46;-3.50;70.30
21734;DHT22;11029;47.820;10.534;2023-02-15T06:55:13;-3.50;70.20
21734;DHT22;11029;47.820;10.534;2023-02-15T06:57:40;-3.50;70.00
21734;DHT22;11029;47.820;10.534;2023-02-15T07:00:07;-3.40;70.20
21734;DHT22;11029;47.820;10.534;2023-02-15T07:02:34;-3.40;69.80
21734;DHT22;11029;47.820;10.534;2023-02-15T07:05:01;-3.40;70.30
21734;DHT22;11029;47.820;10.534;2023-02-15T07:07:28;-3.30;69.60
21734;DHT22;11029;47.820;10.534;2023-02-15T07:09:55;-3.30;70.20
21734;DHT22;11029;47.820;10.534;2023-02-15T07:12:21;-3.20;70.10
21734;DHT22;11029;47.820;10.534;2023-02-15T07:15:11;-3.10;70.60
21734;DHT22;11029;47.820;10.534;2023-02-15T07:17:38;-2.90;71.70
21734;DHT22;11029;47.820;10.534;2023-02-15T07:20:11;-2.90;71.70
21734;DHT22;11029;47.820;10.534;2023-02-15T07:22:38;-2.80;71.70
21734;DHT22;11029;47.820;10.534;2023-02-15T07:25:06;-2.60;71.40
21734;DHT22;11029;47.820;10.534;2023-02-15T07:27:34;-2.40;70.70
21734;DHT22;11029;47.820;10.534;2023-02-15T07:30:01;-2.30;70.00
21734;DHT22;11029;47.820;10.534;2023-02-15T07:32:29;-2.20;69.50
21734;DHT22;11029;47.820;10.534;2023-02-15T07:34:56;-2.20;69.70
21734;DHT22;11029;47.820;10.534;2023-02-15T07:37:23;-2.10;70.00
21734;DHT22;11029;47.820;10.534;2023-02-15T07:39:50;-2.00;69.50
21734;DHT22;11029;47.820;10.534;2023-02-15T07:42:16;-1.80;70.40
21734;DHT22;11029;47.820;10.534;2023-02-15T07:44:45;-1.70;69.60
21734;DHT22;11029;47.820;10.534;2023-02-15T07:47:12;-1.50;69.70
21734;DHT22;11029;47.820;10.534;2023-02-15T07:49:38;-1.40;69.10
21734;DHT22;11029;47.820;10.534;2023-02-15T07:52:05;-1.30;70.00
21734;DHT22;11029;47.820;10.534;2023-02-15T07:54:32;-1.20;70.60
21734;DHT22;11029;47.820;10.534;2023-02-15T07:57:00;-1.00;70.70
21734;DHT22;11029;47.820;10.534;2023-02-15T07:59:27;-0.90;70.50
21734;DHT22;11029;47.820;10.534;2023-02-15T08:01:54;-0.70;70.20
21734;DHT22;11029;47.820;10.534;2023-02-15T08:04:23;-0.60;70.20
21734;DHT22;11029;47.820;10.534;2023-02-15T08:06:53;-0.30;69.60
21734;DHT22;11029;47.820;10.534;2023-02-15T08:09:21;0.00;68.90
21734;DHT22;11029;47.820;10.534;2023-02-15T08:11:47;0.20;67.70
21734;DHT22;11029;47.820;10.534;2023-02-15T08:14:16;0.40;66.50
21734;DHT22;11029;47.820;10.534;2023-02-15T08:16:49;0.70;65.90
21734;DHT22;11029;47.820;10.534;2023-02-15T08:22:05;1.10;65.10
21734;DHT22;11029;47.820;10.534;2023-02-15T08:24:34;1.30;64.20
21734;DHT22;11029;47.820;10.534;2023-02-15T08:27:01;1.40;64.00
21734;DHT22;11029;47.820;10.534;2023-02-15T08:29:33;1.50;63.50
21734;DHT22;11029;47.820;10.534;2023-02-15T08:32:11;1.70;63.00
21734;DHT22;11029;47.820;10.534;2023-02-15T08:34:40;1.90;63.00
21734;DHT22;11029;47.820;10.534;2023-02-15T08:37:07;2.10;62.50
21734;DHT22;11029;47.820;10.534;2023-02-15T08:39:34;2.30;61.90
21734;DHT22;11029;47.820;10.534;2023-02-15T08:42:01;2.50;61.40
21734;DHT22;11029;47.820;10.534;2023-02-15T08:44:28;2.60;60.50
21734;DHT22;11029;47.820;10.534;2023-02-15T08:46:54;2.60;59.80
21734;DHT22;11029;47.820;10.534;2023-02-15T08:49:23;2.60;60.70
21734;DHT22;11029;47.820;10.534;2023-02-15T08:51:50;2.70;60.90
21734;DHT22;11029;47.820;10.534;2023-02-15T08:54:19;2.80;60.40
21734;DHT22;11029;47.820;10.534;2023-02-15T08:56:46;2.90;60.10
21734;DHT22;11029;47.820;10.534;2023-02-15T08:59:19;3.00;59.80
21734;DHT22;11029;47.820;10.534;2023-02-15T09:01:47;3.20;59.60
21734;DHT22;11029;47.820;10.534;2023-02-15T09:04:14;3.40;59.00
21734;DHT22;11029;47.820;10.534;2023-02-15T09:06:43;3.60;58.20
21734;DHT22;11029;47.820;10.534;2023-02-15T09:09:13;3.80;57.30
21734;DHT22;11029;47.820;10.534;2023-02-15T09:11:42;3.80;57.10
21734;DHT22;11029;47.820;10.534;2023-02-15T09:14:13;3.90;56.60
21734;DHT22;11029;47.820;10.534;2023-02-15T09:16:41;4.10;56.60
21734;DHT22;11029;47.820;10.534;2023-02-15T09:19:08;4.50;55.10
21734;DHT22;11029;47.820;10.534;2023-02-15T09:21:37;4.80;54.30
21734;DHT22;11029;47.820;10.534;2023-02-15T09:24:13;5.00;53.70
21734;DHT22;11029;47.820;10.534;2023-02-15T09:26:42;5.30;52.60
21734;DHT22;11029;47.820;10.534;2023-02-15T09:29:10;5.50;52.60
21734;DHT22;11029;47.820;10.534;2023-02-15T09:31:43;5.60;52.60
21734;DHT22;11029;47.820;10.534;2023-02-15T09:34:13;5.80;53.00
21734;DHT22;11029;47.820;10.534;2023-02-15T09:36:40;6.10;52.80
21734;DHT22;11029;47.820;10.534;2023-02-15T09:39:09;6.20;52.70
21734;DHT22;11029;47.820;10.534;2023-02-15T09:44:30;6.50;51.10
21734;DHT22;11029;47.820;10.534;2023-02-15T09:47:34;6.70;49.50
21734;DHT22;11029;47.820;10.534;2023-02-15T09:50:55;6.90;49.10
21734;DHT22;11029;47.820;10.534;2023-02-15T10:11:16;7.80;46.10
21734;DHT22;11029;47.820;10.534;2023-02-15T10:13:33;8.00;45.80
21734;DHT22;11029;47.820;10.534;2023-02-15T10:19:16;8.10;44.70
21734;DHT22;11029;47.820;10.534;2023-02-15T10:22:04;8.10;44.90
21734;DHT22;11029;47.820;10.534;2023-02-15T10:27:13;8.30;44.40
21734;DHT22;11029;47.820;10.534;2023-02-15T10:32:23;8.70;44.40
21734;DHT22;11029;47.820;10.534;2023-02-15T10:35:00;8.90;44.30
21734;DHT22;11029;47.820;10.534;2023-02-15T10:43:27;9.20;44.40
21734;DHT22;11029;47.820;10.534;2023-02-15T10:54:28;9.80;43.40
21734;DHT22;11029;47.820;10.534;2023-02-15T11:07:47;10.60;40.00
21734;DHT22;11029;47.820;10.534;2023-02-15T11:13:07;10.90;40.30
21734;DHT22;11029;47.820;10.534;2023-02-15T11:15:52;10.90;38.80
21734;DHT22;11029;47.820;10.534;2023-02-15T11:23:28;11.00;36.90
21734;DHT22;11029;47.820;10.534;2023-02-15T11:26:06;11.10;37.10
21734;DHT22;11029;47.820;10.534;2023-02-15T11:28:43;11.30;37.50
21734;DHT22;11029;47.820;10.534;2023-02-15T11:31:20;11.40;36.60
21734;DHT22;11029;47.820;10.534;2023-02-15T11:33:51;11.50;36.80
21734;DHT22;11029;47.820;10.534;2023-02-15T11:36:25;11.60;36.20
21734;DHT22;11029;47.820;10.534;2023-02-15T11:39:09;11.50;36.20
21734;DHT22;11029;47.820;10.534;2023-02-15T11:42:01;11.60;35.90
21734;DHT22;11029;47.820;10.534;2023-02-15T11:44:39;11.70;36.40
21734;DHT22;11029;47.820;10.534;2023-02-15T11:47:10;11.80;36.50
21734;DHT22;11029;47.820;10.534;2023-02-15T11:49:38;12.00;36.40
21734;DHT22;11029;47.820;10.534;2023-02-15T11:52:07;12.10;36.00
21734;DHT22;11029;47.820;10.534;2023-02-15T11:54:41;12.30;36.30
21734;DHT22;11029;47.820;10.534;2023-02-15T12:00:06;12.60;35.60
21734;DHT22;11029;47.820;10.534;2023-02-15T12:02:38;12.70;35.70
21734;DHT22;11029;47.820;10.534;2023-02-15T12:05:17;12.70;35.30
21734;DHT22;11029;47.820;10.534;2023-02-15T12:07:55;12.70;34.80
21734;DHT22;11029;47.820;10.534;2023-02-15T12:10:33;12.80;35.30
21734;DHT22;11029;47.820;10.534;2023-02-15T12:13:17;12.90;35.50
21734;DHT22;11029;47.820;10.534;2023-02-15T12:15:47;13.00;35.20
21734;DHT22;11029;47.820;10.534;2023-02-15T12:20:48;13.20;34.50
21734;DHT22;11029;47.820;10.534;2023-02-15T12:23:15;13.20;33.70
21734;DHT22;11029;47.820;10.534;2023-02-15T12:25:50;13.30;33.20
21734;DHT22;11029;47.820;10.534;2023-02-15T12:30:57;13.60;33.80
21734;DHT22;11029;47.820;10.534;2023-02-15T12:33:35;13.60;33.60
21734;DHT22;11029;47.820;10.534;2023-02-15T12:37:00;13.70;33.90
21734;DHT22;11029;47.820;10.534;2023-02-15T12:39:18;13.70;34.20
21734;DHT22;11029;47.820;10.534;2023-02-15T12:42:01;13.60;34.20
21734;DHT22;11029;47.820;10.534;2023-02-15T12:44:31;13.70;34.10
21734;DHT22;11029;47.820;10.534;2023-02-15T12:47:18;13.70;33.10
21734;DHT22;11029;47.820;10.534;2023-02-15T12:50:14;13.70;32.90
21734;DHT22;11029;47.820;10.534;2023-02-15T12:52:48;13.80;33.60
21734;DHT22;11029;47.820;10.534;2023-02-15T12:55:20;14.00;33.40
21734;DHT22;11029;47.820;10.534;2023-02-15T12:57:47;14.20;32.20
21734;DHT22;11029;47.820;10.534;2023-02-15T13:02:48;14.70;32.00
21734;DHT22;11029;47.820;10.534;2023-02-15T13:07:50;14.70;31.70
21734;DHT22;11029;47.820;10.534;2023-02-15T13:12:52;14.70;31.50
21734;DHT22;11029;47.820;10.534;2023-02-15T13:15:34;14.70;30.70
21734;DHT22;11029;47.820;10.534;2023-02-15T13:18:02;14.70;31.20
21734;DHT22;11029;47.820;10.534;2023-02-15T13:20:32;14.80;30.40
21734;DHT22;11029;47.820;10.534;2023-02-15T13:23:05;14.80;31.20
21734;DHT22;11029;47.820;10.534;2023-02-15T13:25:45;14.90;30.80
21734;DHT22;11029;47.820;10.534;2023-02-15T13:28:19;15.10;31.40
21734;DHT22;11029;47.820;10.534;2023-02-15T13:30:47;15.10;30.80
21734;DHT22;11029;47.820;10.534;2023-02-15T13:33:31;15.10;30.90
21734;DHT22;11029;47.820;10.534;2023-02-15T13:40:59;15.40;29.80
21734;DHT22;11029;47.820;10.534;2023-02-15T13:54:29;15.30;29.00
21734;DHT22;11029;47.820;10.534;2023-02-15T14:06:23;15.90;29.80
21734;DHT22;11029;47.820;10.534;2023-02-15T14:19:56;20.70;24.90
21734;DHT22;11029;47.820;10.534;2023-02-15T14:22:41;22.20;24.00
21734;DHT22;11029;47.820;10.534;2023-02-15T14:27:44;25.10;20.90
21734;DHT22;11029;47.820;10.534;2023-02-15T14:30:26;24.00;21.40
21734;DHT22;11029;47.820;10.534;2023-02-15T14:35:32;24.40;21.30
21734;DHT22;11029;47.820;10.534;2023-02-15T14:38:13;25.10;21.40
21734;DHT22;11029;47.820;10.534;2023-02-15T14:40:58;26.80;20.60
21734;DHT22;11029;47.820;10.534;2023-02-15T14:51:05;28.10;21.30
21734;DHT22;11029;47.820;10.534;2023-02-15T14:53:36;29.50;20.90
21734;DHT22;11029;47.820;10.534;2023-02-15T14:56:19;30.10;20.60
21734;DHT22;11029;47.820;10.534;2023-02-15T15:01:33;31.70;19.90
21734;DHT22;11029;47.820;10.534;2023-02-15T15:04:21;32.40;19.40
21734;DHT22;11029;47.820;10.534;2023-02-15T15:07:20;32.60;19.10
21734;DHT22;11029;47.820;10.534;2023-02-15T15:09:48;32.30;19.10
21734;DHT22;11029;47.820;10.534;2023-02-15T15:14:52;29.80;20.40
21734;DHT22;11029;47.820;10.534;2023-02-15T15:20:05;29.70;20.30
21734;DHT22;11029;47.820;10.534;2023-02-15T15:22:41;29.00;20.70
21734;DHT22;11029;47.820;10.534;2023-02-15T15:25:46;28.60;21.00
21734;DHT22;11029;47.820;10.534;2023-02-15T15:31:38;27.60;21.50
21734;DHT22;11029;47.820;10.534;2023-02-15T15:37:32;26.70;21.80
21734;DHT22;11029;47.820;10.534;2023-02-15T15:43:09;25.70;23.10
21734;DHT22;11029;47.820;10.534;2023-02-15T15:48:35;25.30;23.80
21734;DHT22;11029;47.820;10.534;2023-02-15T15:51:11;25.40;24.00
21734;DHT22;11029;47.820;10.534;2023-02-15T15:53:45;25.60;23.80
21734;DHT22;11029;47.820;10.534;2023-02-15T15:56:21;25.20;23.80
21734;DHT22;11029;47.820;10.534;2023-02-15T15:59:05;25.30;23.90
21734;DHT22;11029;47.820;10.534;2023-02-15T16:01:42;24.00;23.90
21734;DHT22;11029;47.820;10.534;2023-02-15T16:04:22;21.20;25.00
21734;DHT22;11029;47.820;10.534;2023-02-15T16:06:49;19.40;26.70
21734;DHT22;11029;47.820;10.534;2023-02-15T16:09:26;17.80;28.20
21734;DHT22;11029;47.820;10.534;2023-02-15T16:11:57;16.40;29.60
21734;DHT22;11029;47.820;10.534;2023-02-15T16:14:36;15.30;31.30
21734;DHT22;11029;47.820;10.534;2023-02-15T16:17:06;14.60;33.20
21734;DHT22;11029;47.820;10.534;2023-02-15T16:19:35;13.90;34.70
21734;DHT22;11029;47.820;10.534;2023-02-15T16:22:04;13.30;35.90
21734;DHT22;11029;47.820;10.534;2023-02-15T16:29:41;12.20;38.60
21734;DHT22;11029;47.820;10.534;2023-02-15T16:32:22;12.10;38.90
21734;DHT22;11029;47.820;10.534;2023-02-15T16:34:53;11.70;39.90
21734;DHT22;11029;47.820;10.534;2023-02-15T16:37:22;11.40;40.20
21734;DHT22;11029;47.820;10.534;2023-02-15T16:39:50;11.10;40.90
21734;DHT22;11029;47.820;10.534;2023-02-15T16:42:17;10.90;41.60
21734;DHT22;11029;47.820;10.534;2023-02-15T16:44:51;10.60;42.20
21734;DHT22;11029;47.820;10.534;2023-02-15T16:47:26;10.20;43.00
21734;DHT22;11029;47.820;10.534;2023-02-15T16:49:57;9.90;43.70
21734;DHT22;11029;47.820;10.534;2023-02-15T16:52:26;9.60;44.10
21734;DHT22;11029;47.820;10.534;2023-02-15T16:54:59;9.30;44.80
21734;DHT22;11029;47.820;10.534;2023-02-15T16:57:34;9.00;45.50
21734;DHT22;11029;47.820;10.534;2023-02-15T17:00:05;8.70;46.10
21734;DHT22;11029;47.820;10.534;2023-02-15T17:02:34;8.40;46.90
21734;DHT22;11029;47.820;10.534;2023-02-15T17:05:21;8.20;47.20
21734;DHT22;11029;47.820;10.534;2023-02-15T17:13:27;7.50;48.90
21734;DHT22;11029;47.820;10.534;2023-02-15T17:18:30;7.10;49.60
21734;DHT22;11029;47.820;10.534;2023-02-15T17:21:00;6.80;49.80
21734;DHT22;11029;47.820;10.534;2023-02-15T17:23:42;6.40;50.60
21734;DHT22;11029;47.820;10.534;2023-02-15T17:26:18;5.90;51.90
21734;DHT22;11029;47.820;10.534;2023-02-15T17:28:48;5.70;53.40
21734;DHT22;11029;47.820;10.534;2023-02-15T17:31:17;5.30;54.50
21734;DHT22;11029;47.820;10.534;2023-02-15T17:33:45;5.40;54.00
21734;DHT22;11029;47.820;10.534;2023-02-15T17:39:33;5.70;53.50
21734;DHT22;11029;47.820;10.534;2023-02-15T17:41:52;5.70;53.00
21734;DHT22;11029;47.820;10.534;2023-02-15T17:44:19;5.40;53.10
21734;DHT22;11029;47.820;10.534;2023-02-15T17:46:46;5.20;53.50
21734;DHT22;11029;47.820;10.534;2023-02-15T17:49:26;5.30;53.80
21734;DHT22;11029;47.820;10.534;2023-02-15T17:52:01;5.00;54.60
21734;DHT22;11029;47.820;10.534;2023-02-15T17:54:28;4.70;55.20
21734;DHT22;11029;47.820;10.534;2023-02-15T17:57:14;4.70;55.50
21734;DHT22;11029;47.820;10.534;2023-02-15T17:59:42;4.50;55.80
21734;DHT22;11029;47.820;10.534;2023-02-15T18:02:37;4.40;56.20
21734;DHT22;11029;47.820;10.534;2023-02-15T18:05:23;4.50;55.60
21734;DHT22;11029;47.820;10.534;2023-02-15T18:08:16;4.40;55.80
21734;DHT22;11029;47.820;10.534;2023-02-15T18:11:03;4.20;55.80
21734;DHT22;11029;47.820;10.534;2023-02-15T18:13:48;4.00;57.10
21734;DHT22;11029;47.820;10.534;2023-02-15T18:16:19;4.00;56.70
21734;DHT22;11029;47.820;10.534;2023-02-15T18:18:47;4.00;56.90
21734;DHT22;11029;47.820;10.534;2023-02-15T18:21:13;3.90;57.40
21734;DHT22;11029;47.820;10.534;2023-02-15T18:23:40;3.80;57.30
21734;DHT22;11029;47.820;10.534;2023-02-15T18:26:16;3.60;58.00
21734;DHT22;11029;47.820;10.534;2023-02-15T18:28:44;3.50;57.80
21734;DHT22;11029;47.820;10.534;2023-02-15T18:31:10;3.40;58.10
21734;DHT22;11029;47.820;10.534;2023-02-15T18:33:49;3.40;58.10
21734;DHT22;11029;47.820;10.534;2023-02-15T18:36:26;3.30;58.10
21734;DHT22;11029;47.820;10.534;2023-02-15T18:38:55;3.20;58.50
21734;DHT22;11029;47.820;10.534;2023-02-15T18:41:22;3.00;58.40
21734;DHT22;11029;47.820;10.534;2023-02-15T18:43:49;3.00;58.40
21734;DHT22;11029;47.820;10.534;2023-02-15T18:46:18;2.90;59.00
21734;DHT22;11029;47.820;10.534;2023-02-15T18:48:45;2.90;58.90
21734;DHT22;11029;47.820;10.534;2023-02-15T18:51:20;2.70;60.00
21734;DHT22;11029;47.820;10.534;2023-02-15T18:53:49;2.70;60.20
21734;DHT22;11029;47.820;10.534;2023-02-15T18:56:19;2.80;59.90
21734;DHT22;11029;47.820;10.534;2023-02-15T18:58:46;2.70;59.70
21734;DHT22;11029;47.820;10.534;2023-02-15T19:01:18;2.70;60.00
21734;DHT22;11029;47.820;10.534;2023-02-15T19:03:50;2.60;59.50